createdAt,value
2018-02-09T00:02:19.632Z,86.68
2018-02-09T00:04:47.095Z,86.79
2018-02-09T00:07:14.610Z,87.00
2018-02-09T00:09:42.825Z,86.94
2018-02-09T00:12:10.314Z,86.84
2018-02-09T00:14:37.854Z,86.62
2018-02-09T00:17:05.627Z,86.25
2018-02-09T00:19:33.380Z,86.11
2018-02-09T00:22:01.462Z,85.93
2018-02-09T00:24:30.282Z,85.89
2018-02-09T00:26:58.030Z,86.14
2018-02-09T00:29:25.527Z,86.26
2018-02-09T00:31:53.227Z,86.20
2018-02-09T00:34:20.754Z,86.22
2018-02-09T00:36:48.267Z,86.41
2018-02-09T00:39:16.028Z,86.33
2018-02-09T00:41:44.221Z,86.29
2018-02-09T00:44:11.862Z,86.37
2018-02-09T00:46:39.391Z,86.53
2018-02-09T00:49:07.692Z,86.66
2018-02-09T00:51:35.231Z,86.67
2018-02-09T00:54:03.613Z,86.76
2018-02-09T00:56:31.307Z,86.75
2018-02-09T00:58:59.755Z,86.72
2018-02-09T01:01:27.459Z,86.68
2018-02-09T01:03:55.306Z,86.56
2018-02-09T01:06:23.171Z,86.22
2018-02-09T01:08:50.734Z,86.13
2018-02-09T01:11:18.239Z,86.05
2018-02-09T01:13:45.781Z,85.97
2018-02-09T01:16:13.288Z,85.89
2018-02-09T01:18:41.801Z,85.81
2018-02-09T01:21:09.835Z,85.75
2018-02-09T01:23:37.324Z,85.65
2018-02-09T01:26:05.799Z,85.51
2018-02-09T01:28:33.318Z,85.45
2018-02-09T01:31:00.783Z,85.43
2018-02-09T01:33:28.272Z,85.42
2018-02-09T01:35:56.078Z,85.40
2018-02-09T01:38:23.603Z,85.52
2018-02-09T01:40:51.110Z,85.58
2018-02-09T01:43:19.342Z,85.59
2018-02-09T01:45:47.359Z,85.74
2018-02-09T01:48:14.875Z,85.86
2018-02-09T01:50:42.335Z,85.87
2018-02-09T01:53:10.083Z,85.76
2018-02-09T01:55:37.578Z,85.57
2018-02-09T01:58:05.351Z,85.45
2018-02-09T02:00:33.293Z,85.29
2018-02-09T02:03:02.252Z,85.35
2018-02-09T02:05:29.798Z,85.37
2018-02-09T02:07:57.594Z,85.46
2018-02-09T02:10:25.344Z,85.55
2018-02-09T02:12:53.751Z,85.81
2018-02-09T02:15:21.290Z,85.99
2018-02-09T02:17:50.469Z,86.27
2018-02-09T02:20:18.221Z,86.36
2018-02-09T02:22:46.789Z,86.50
2018-02-09T02:25:15.275Z,86.62
2018-02-09T02:27:43.096Z,86.71
2018-02-09T02:30:10.703Z,86.67
2018-02-09T02:32:38.984Z,86.66
2018-02-09T02:35:06.510Z,86.71
2018-02-09T02:37:34.223Z,86.81
2018-02-09T02:40:02.531Z,86.85
2018-02-09T02:42:30.043Z,86.84
2018-02-09T02:44:57.560Z,87.03
2018-02-09T02:47:25.853Z,87.04
2018-02-09T02:49:53.369Z,87.12
2018-02-09T02:52:20.911Z,87.19
2018-02-09T02:54:48.402Z,87.20
2018-02-09T02:57:15.910Z,87.11
2018-02-09T02:59:43.394Z,87.00
2018-02-09T03:02:10.955Z,86.86
2018-02-09T03:04:38.474Z,86.84
2018-02-09T03:07:05.978Z,86.87
2018-02-09T03:09:33.523Z,86.99
2018-02-09T03:12:01.296Z,87.04
2018-02-09T03:14:29.127Z,86.54
2018-02-09T03:16:56.926Z,86.57
2018-02-09T03:19:24.427Z,86.42
2018-02-09T03:21:52.138Z,86.53
2018-02-09T03:24:19.848Z,86.80
2018-02-09T03:26:47.409Z,87.04
2018-02-09T03:29:14.937Z,87.32
2018-02-09T03:31:43.842Z,87.50
2018-02-09T03:34:11.382Z,87.58
2018-02-09T03:36:39.106Z,87.59
2018-02-09T03:39:06.840Z,87.66
2018-02-09T03:41:34.565Z,87.65
2018-02-09T03:44:02.067Z,87.75
2018-02-09T03:46:29.575Z,87.76
2018-02-09T03:48:57.825Z,87.67
2018-02-09T03:51:25.574Z,87.96
2018-02-09T03:53:54.015Z,88.30
2018-02-09T03:56:21.574Z,88.30
2018-02-09T03:58:49.078Z,88.38
2018-02-09T04:01:17.961Z,88.39
2018-02-09T04:03:46.270Z,88.52
2018-02-09T04:06:13.974Z,88.50
2018-02-09T04:08:41.467Z,88.37
2018-02-09T04:11:09.250Z,87.75
2018-02-09T04:13:36.717Z,87.52
2018-02-09T04:16:04.267Z,87.36
2018-02-09T04:18:31.799Z,87.42
2018-02-09T04:21:00.382Z,87.44
2018-02-09T04:23:28.100Z,87.33
2018-02-09T04:25:56.375Z,87.22
2018-02-09T04:28:23.840Z,87.14
2018-02-09T04:30:51.367Z,87.05
2018-02-09T04:33:19.101Z,86.95
2018-02-09T04:35:46.706Z,86.80
2018-02-09T04:38:14.206Z,86.69
2018-02-09T04:40:41.722Z,86.76
2018-02-09T04:43:10.142Z,86.61
2018-02-09T04:45:38.006Z,86.77
2018-02-09T04:48:05.748Z,86.84
2018-02-09T04:50:33.282Z,86.84
2018-02-09T04:53:00.746Z,86.92
2018-02-09T04:55:28.286Z,86.97
2018-02-09T04:57:57.494Z,87.21
2018-02-09T05:00:25.423Z,87.19
2018-02-09T05:02:52.891Z,87.29
2018-02-09T05:05:20.406Z,87.20
2018-02-09T05:07:48.135Z,87.29
2018-02-09T05:10:15.635Z,87.56
2018-02-09T05:12:43.114Z,87.67
2018-02-09T05:15:10.638Z,87.66
2018-02-09T05:17:39.212Z,87.75
2018-02-09T05:20:07.735Z,87.64
2018-02-09T05:22:36.193Z,87.38
2018-02-09T05:25:03.674Z,87.23
2018-02-09T05:27:31.167Z,86.95
2018-02-09T05:29:59.247Z,86.77
2018-02-09T05:32:26.868Z,86.55
2018-02-09T05:34:54.330Z,86.31
2018-02-09T05:37:22.678Z,86.20
2018-02-09T05:39:50.266Z,86.12
2018-02-09T05:42:18.026Z,85.96
2018-02-09T05:44:45.617Z,85.84
2018-02-09T05:47:13.162Z,85.58
2018-02-09T05:49:40.655Z,85.34
2018-02-09T05:52:08.616Z,85.29
2018-02-09T05:54:36.094Z,85.11
2018-02-09T05:57:03.588Z,84.89
2018-02-09T05:59:31.465Z,84.85
2018-02-09T06:01:58.994Z,84.84
2018-02-09T06:04:26.458Z,84.80
2018-02-09T06:06:53.943Z,84.81
2018-02-09T06:09:21.754Z,84.93
2018-02-09T06:11:49.244Z,85.32
2018-02-09T06:14:17.515Z,85.32
2018-02-09T06:16:46.203Z,85.27
2018-02-09T06:19:13.785Z,85.38
2018-02-09T06:21:43.037Z,85.46
2018-02-09T06:24:11.290Z,85.59
2018-02-09T06:26:38.850Z,85.70
2018-02-09T06:29:06.688Z,85.84
2018-02-09T06:31:34.199Z,85.97
2018-02-09T06:34:01.730Z,86.08
2018-02-09T06:36:29.206Z,86.21
2018-02-09T06:38:57.007Z,86.35
2018-02-09T06:41:25.816Z,86.19
2018-02-09T06:43:53.303Z,85.55
2018-02-09T06:46:21.078Z,85.02
2018-02-09T06:48:49.051Z,84.16
2018-02-09T06:51:17.483Z,83.90
2018-02-09T06:53:45.329Z,83.44
2018-02-09T06:56:12.794Z,82.74
2018-02-09T06:58:40.686Z,81.86
2018-02-09T07:01:08.165Z,81.98
2018-02-09T07:03:35.678Z,81.26
2018-02-09T07:06:03.614Z,80.35
2018-02-09T07:08:32.079Z,80.05
2018-02-09T07:10:59.574Z,80.39
2018-02-09T07:13:27.561Z,80.48
2018-02-09T07:15:55.059Z,80.60
2018-02-09T07:18:23.547Z,80.85
2018-02-09T07:20:51.443Z,80.55
2018-02-09T07:23:19.191Z,80.80
2018-02-09T07:25:46.702Z,81.16
2018-02-09T07:28:14.660Z,81.33
2018-02-09T07:30:42.127Z,82.13
2018-02-09T07:33:09.857Z,82.56
2018-02-09T07:35:37.447Z,82.77
2018-02-09T07:38:05.176Z,83.07
2018-02-09T07:40:32.690Z,83.28
2018-02-09T07:43:00.174Z,83.53
2018-02-09T07:45:27.746Z,83.38
2018-02-09T07:47:55.535Z,82.92
2018-02-09T07:50:23.928Z,82.80
2018-02-09T07:52:51.485Z,82.66
2018-02-09T07:55:19.031Z,82.39
2018-02-09T07:57:47.693Z,83.00
2018-02-09T08:00:15.723Z,82.69
2018-02-09T08:02:43.930Z,83.03
2018-02-09T08:05:11.431Z,83.09
2018-02-09T08:07:39.297Z,82.66
2018-02-09T08:10:06.874Z,82.58
2018-02-09T08:12:34.377Z,82.31
2018-02-09T08:15:01.896Z,81.98
2018-02-09T08:17:29.398Z,81.85
2018-02-09T08:19:57.366Z,81.73
2018-02-09T08:22:25.336Z,81.74
2018-02-09T08:24:53.150Z,80.98
2018-02-09T08:27:20.623Z,80.28
2018-02-09T08:29:49.334Z,80.30
2018-02-09T08:32:17.032Z,80.36
2018-02-09T08:34:44.579Z,80.08
2018-02-09T08:37:12.060Z,79.76
2018-02-09T08:39:39.587Z,79.11
2018-02-09T08:42:07.605Z,78.11
2018-02-09T08:44:35.087Z,78.00
2018-02-09T08:47:02.823Z,77.55
2018-02-09T08:49:30.351Z,77.09
2018-02-09T08:51:58.070Z,76.85
2018-02-09T08:54:25.607Z,76.82
2018-02-09T08:56:53.075Z,77.73
2018-02-09T08:59:20.874Z,78.21
2018-02-09T09:01:50.863Z,77.15
2018-02-09T09:04:18.607Z,78.53
2018-02-09T09:06:46.357Z,77.36
2018-02-09T09:09:14.829Z,77.84
2018-02-09T09:11:42.311Z,76.98
2018-02-09T09:14:09.825Z,76.30
2018-02-09T09:16:38.209Z,76.40
2018-02-09T09:19:05.735Z,76.74
2018-02-09T09:21:34.060Z,77.03
2018-02-09T09:24:01.546Z,77.44
2018-02-09T09:26:29.808Z,77.40
2018-02-09T09:28:58.044Z,77.11
2018-02-09T09:31:25.751Z,75.50
2018-02-09T09:33:53.299Z,75.51
2018-02-09T09:36:20.995Z,76.82
2018-02-09T09:38:49.318Z,75.48
2018-02-09T09:41:17.133Z,75.39
2018-02-09T09:43:45.446Z,76.15
2018-02-09T09:46:13.966Z,74.85
2018-02-09T09:48:42.299Z,74.60
2018-02-09T09:51:10.318Z,75.08
2018-02-09T09:53:37.782Z,75.20
2018-02-09T09:56:05.319Z,76.89
2018-02-09T09:58:32.920Z,76.27
2018-02-09T10:01:00.681Z,75.64
2018-02-09T10:03:28.870Z,75.66
2018-02-09T10:05:58.133Z,74.72
2018-02-09T10:08:26.090Z,74.59
2018-02-09T10:10:53.671Z,75.20
2018-02-09T10:13:22.370Z,76.09
2018-02-09T10:15:50.889Z,74.54
2018-02-09T10:18:18.620Z,74.52
2018-02-09T10:20:46.413Z,73.93
2018-02-09T10:23:14.836Z,73.98
2018-02-09T10:25:42.828Z,74.63
2018-02-09T10:28:11.027Z,75.57
2018-02-09T10:30:39.158Z,74.28
2018-02-09T10:33:07.735Z,73.14
2018-02-09T10:35:36.282Z,74.29
2018-02-09T10:38:03.798Z,72.78
2018-02-09T10:40:31.411Z,73.46
2018-02-09T10:42:59.131Z,73.07
2018-02-09T10:45:27.145Z,72.93
2018-02-09T10:47:55.822Z,72.99
2018-02-09T10:50:23.623Z,73.39
2018-02-09T10:52:51.657Z,74.46
2018-02-09T10:55:20.547Z,74.01
2018-02-09T10:57:48.287Z,73.54
2018-02-09T11:00:16.115Z,72.22
2018-02-09T11:02:43.640Z,72.69
2018-02-09T11:05:11.558Z,73.14
2018-02-09T11:07:39.071Z,72.35
2018-02-09T11:10:12.480Z,73.56
2018-02-09T11:12:43.182Z,73.34
2018-02-09T11:15:11.679Z,73.64
2018-02-09T11:17:39.747Z,72.84
2018-02-09T11:20:07.219Z,70.75
2018-02-09T11:22:35.027Z,72.08
2018-02-09T11:25:02.526Z,72.22
2018-02-09T11:27:31.468Z,70.92
2018-02-09T11:29:59.519Z,70.10
2018-02-09T11:32:27.051Z,70.09
2018-02-09T11:34:54.978Z,71.16
2018-02-09T11:37:22.958Z,70.11
2018-02-09T11:39:50.471Z,69.93
2018-02-09T11:42:18.845Z,70.30
2018-02-09T11:44:46.329Z,70.58
2018-02-09T11:47:17.875Z,69.66
2018-02-09T11:49:45.428Z,70.44
2018-02-09T11:52:13.214Z,69.56
2018-02-09T11:54:42.149Z,69.91
2018-02-09T11:57:09.679Z,68.71
2018-02-09T11:59:37.179Z,69.53
2018-02-09T12:02:04.693Z,68.05
2018-02-09T12:04:32.411Z,68.25
2018-02-09T12:07:00.173Z,67.20
2018-02-09T12:09:28.018Z,67.14
2018-02-09T12:11:55.551Z,67.21
2018-02-09T12:14:23.339Z,67.70
2018-02-09T12:16:50.940Z,68.58
2018-02-09T12:19:18.915Z,67.89
2018-02-09T12:21:47.341Z,67.67
2018-02-09T12:24:14.859Z,67.82
2018-02-09T12:26:42.958Z,67.61
2018-02-09T12:29:11.279Z,67.40
2018-02-09T12:31:39.053Z,67.33
2018-02-09T12:34:06.766Z,67.39
2018-02-09T12:36:35.055Z,67.00
2018-02-09T12:39:02.911Z,65.99
2018-02-09T12:41:30.471Z,67.05
2018-02-09T12:43:57.999Z,65.81
2018-02-09T12:46:25.519Z,66.15
2018-02-09T12:48:53.083Z,65.53
2018-02-09T12:51:22.875Z,65.56
2018-02-09T12:53:51.490Z,66.20
2018-02-09T12:56:19.702Z,65.68
2018-02-09T12:58:47.417Z,67.01
2018-02-09T13:01:15.143Z,67.27
2018-02-09T13:03:42.649Z,67.44
2018-02-09T13:06:11.464Z,67.07
2018-02-09T13:08:39.568Z,66.79
2018-02-09T13:11:07.043Z,66.01
2018-02-09T13:13:34.551Z,65.63
2018-02-09T13:16:02.047Z,67.34
2018-02-09T13:18:41.146Z,66.24
2018-02-09T13:21:08.603Z,65.85
2018-02-09T13:23:47.931Z,66.38
2018-02-09T13:26:15.431Z,65.75
2018-02-09T13:28:54.747Z,67.76
2018-02-09T13:31:22.206Z,67.06
2018-02-09T13:33:49.690Z,67.44
2018-02-09T13:36:17.254Z,66.94
2018-02-09T13:38:44.754Z,67.24
2018-02-09T13:41:12.286Z,66.89
2018-02-09T13:43:39.807Z,66.43
2018-02-09T13:46:07.267Z,65.66
2018-02-09T13:48:34.831Z,65.42
2018-02-09T13:51:02.919Z,65.89
2018-02-09T13:53:30.407Z,64.97
2018-02-09T13:55:58.738Z,65.14
2018-02-09T13:58:27.720Z,63.16
2018-02-09T14:00:55.259Z,62.07
2018-02-09T14:03:23.518Z,62.32
2018-02-09T14:05:51.415Z,62.37
2018-02-09T14:08:19.114Z,61.10
2018-02-09T14:10:46.921Z,60.98
2018-02-09T14:13:15.259Z,58.50
2018-02-09T14:15:43.086Z,60.82
2018-02-09T14:18:10.551Z,59.87
2018-02-09T14:20:38.410Z,61.24
2018-02-09T14:23:05.955Z,63.14
2018-02-09T14:25:35.158Z,66.11
2018-02-09T14:28:02.647Z,66.40
2018-02-09T14:30:30.142Z,67.11
2018-02-09T14:32:57.610Z,67.41
2018-02-09T14:35:25.139Z,68.11
2018-02-09T14:37:52.974Z,67.85
2018-02-09T14:40:20.496Z,68.76
2018-02-09T14:42:48.814Z,68.19
2018-02-09T14:45:16.295Z,67.87
2018-02-09T14:47:43.847Z,68.66
2018-02-09T14:50:11.351Z,69.37
2018-02-09T14:52:38.808Z,67.17
2018-02-09T14:55:06.537Z,66.54
2018-02-09T14:57:34.006Z,65.33
2018-02-09T15:00:01.521Z,66.62
2018-02-09T15:02:28.979Z,68.30
2018-02-09T15:04:56.458Z,68.75
2018-02-09T15:07:23.926Z,69.40
2018-02-09T15:09:51.418Z,69.68
2018-02-09T15:12:18.899Z,71.66
2018-02-09T15:14:46.383Z,72.05
2018-02-09T15:17:13.883Z,73.05
2018-02-09T15:19:41.340Z,74.58
2018-02-09T15:22:08.803Z,73.68
2018-02-09T15:24:36.280Z,74.59
2018-02-09T15:27:03.735Z,74.29
2018-02-09T15:29:31.223Z,74.36
2018-02-09T15:31:58.689Z,74.45
2018-02-09T15:34:26.172Z,75.05
2018-02-09T15:36:53.639Z,75.14
2018-02-09T15:39:21.160Z,75.42
2018-02-09T15:41:48.615Z,76.61
2018-02-09T15:44:16.112Z,76.01
2018-02-09T15:46:43.579Z,76.62
2018-02-09T15:49:11.104Z,76.66
2018-02-09T15:51:38.567Z,77.06
2018-02-09T15:54:06.039Z,76.97
2018-02-09T15:56:33.600Z,76.88
2018-02-09T15:59:01.063Z,76.72
2018-02-09T16:01:28.538Z,77.57
2018-02-09T16:03:55.995Z,78.06
2018-02-09T16:06:23.475Z,78.22
2018-02-09T16:08:50.930Z,78.85
2018-02-09T16:11:18.407Z,79.44
2018-02-09T16:13:45.867Z,79.39
2018-02-09T16:16:13.335Z,79.16
2018-02-09T16:18:40.806Z,79.12
2018-02-09T16:21:08.291Z,79.44
2018-02-09T16:23:35.746Z,79.72
2018-02-09T16:26:03.258Z,80.29
2018-02-09T16:28:30.719Z,80.47
2018-02-09T16:30:58.199Z,80.68
2018-02-09T16:33:25.663Z,80.78
2018-02-09T16:35:53.153Z,80.60
2018-02-09T16:38:20.614Z,80.46
2018-02-09T16:40:48.100Z,80.44
2018-02-09T16:43:15.559Z,80.52
2018-02-09T16:45:43.054Z,80.09
2018-02-09T16:48:10.514Z,80.12
2018-02-09T16:50:37.987Z,79.65
2018-02-09T16:53:05.443Z,79.34
2018-02-09T16:55:32.924Z,79.46
2018-02-09T16:58:00.400Z,79.22
2018-02-09T17:00:27.874Z,79.35
2018-02-09T17:02:55.331Z,79.23
2018-02-09T17:05:22.811Z,78.89
2018-02-09T17:07:50.268Z,79.11
2018-02-09T17:10:17.728Z,78.95
2018-02-09T17:12:45.231Z,78.93
2018-02-09T17:15:12.695Z,78.86
2018-02-09T17:17:40.179Z,79.03
2018-02-09T17:20:07.636Z,78.99
2018-02-09T17:22:35.123Z,78.96
2018-02-09T17:25:02.611Z,78.90
2018-02-09T17:27:30.091Z,79.65
2018-02-09T17:29:57.547Z,80.17
2018-02-09T17:32:25.035Z,81.05
2018-02-09T17:34:52.494Z,80.11
2018-02-09T17:37:19.983Z,80.17
2018-02-09T17:39:47.447Z,79.98
2018-02-09T17:42:14.930Z,78.96
2018-02-09T17:44:42.388Z,79.72
2018-02-09T17:47:09.871Z,80.17
2018-02-09T17:49:37.338Z,78.98
2018-02-09T17:52:04.824Z,79.70
2018-02-09T17:54:32.392Z,80.00
2018-02-09T17:56:59.870Z,80.05
2018-02-09T17:59:27.326Z,79.55
2018-02-09T18:01:54.860Z,79.62
2018-02-09T18:04:22.316Z,79.40
2018-02-09T18:06:49.799Z,79.40
2018-02-09T18:09:17.259Z,79.04
2018-02-09T18:11:44.734Z,78.98
2018-02-09T18:14:12.199Z,78.99
2018-02-09T18:16:41.753Z,78.21
2018-02-09T18:19:09.223Z,78.70
2018-02-09T18:21:36.715Z,78.24
2018-02-09T18:24:04.182Z,79.23
2018-02-09T18:26:31.668Z,78.94
2018-02-09T18:28:59.131Z,78.72
2018-02-09T18:31:26.615Z,78.55
2018-02-09T18:33:54.072Z,78.54
2018-02-09T18:36:21.534Z,78.33
2018-02-09T18:38:49.015Z,78.43
2018-02-09T18:41:16.479Z,79.43
2018-02-09T18:43:43.980Z,79.46
2018-02-09T18:46:11.447Z,78.79
2018-02-09T18:48:38.938Z,78.72
2018-02-09T18:51:06.412Z,78.52
2018-02-09T18:53:33.923Z,78.50
2018-02-09T18:56:01.383Z,78.61
2018-02-09T18:58:28.872Z,78.04
2018-02-09T19:00:56.337Z,77.92
2018-02-09T19:03:23.819Z,78.51
2018-02-09T19:05:51.274Z,78.21
2018-02-09T19:08:18.769Z,77.75
2018-02-09T19:10:46.222Z,78.35
2018-02-09T19:13:13.721Z,78.05
2018-02-09T19:15:41.175Z,78.20
2018-02-09T19:18:08.680Z,78.18
2018-02-09T19:20:36.143Z,77.92
2018-02-09T19:23:03.634Z,78.58
2018-02-09T19:25:31.086Z,78.35
2018-02-09T19:27:58.563Z,77.90
2018-02-09T19:30:26.028Z,78.76
2018-02-09T19:32:53.504Z,78.50
2018-02-09T19:35:20.970Z,78.57
2018-02-09T19:37:48.454Z,78.99
2018-02-09T19:40:15.922Z,79.20
2018-02-09T19:42:43.471Z,79.42
2018-02-09T19:45:10.931Z,79.64
2018-02-09T19:47:38.409Z,79.74
2018-02-09T19:50:05.937Z,80.07
2018-02-09T19:52:33.496Z,80.11
2018-02-09T19:55:00.982Z,80.51
2018-02-09T19:57:28.435Z,80.65
2018-02-09T19:59:55.915Z,80.59
2018-02-09T20:02:23.370Z,80.21
2018-02-09T20:04:50.847Z,79.84
2018-02-09T20:07:18.307Z,79.35
2018-02-09T20:09:45.788Z,79.25
2018-02-09T20:12:13.255Z,80.26
2018-02-09T20:14:40.735Z,80.11
2018-02-09T20:17:08.190Z,79.77
2018-02-09T20:19:35.666Z,79.81
2018-02-09T20:22:03.122Z,80.14
2018-02-09T20:24:30.594Z,79.86
2018-02-09T20:26:58.055Z,79.88
2018-02-09T20:29:25.544Z,79.68
2018-02-09T20:31:53.012Z,79.70
2018-02-09T20:34:20.491Z,79.67
2018-02-09T20:36:47.960Z,79.52
2018-02-09T20:39:15.444Z,80.23
2018-02-09T20:41:42.907Z,80.04
2018-02-09T20:44:10.382Z,80.15
2018-02-09T20:46:37.843Z,80.73
2018-02-09T20:49:05.336Z,80.89
2018-02-09T20:51:32.850Z,80.84
2018-02-09T20:54:00.333Z,80.86
2018-02-09T20:56:27.792Z,80.91
2018-02-09T20:58:55.271Z,80.81
2018-02-09T21:01:22.723Z,81.02
2018-02-09T21:03:50.198Z,81.31
2018-02-09T21:06:17.659Z,81.36
2018-02-09T21:08:45.181Z,81.28
2018-02-09T21:11:12.646Z,81.39
2018-02-09T21:13:40.120Z,81.41
2018-02-09T21:16:07.580Z,81.86
2018-02-09T21:18:35.048Z,81.74
2018-02-09T21:21:02.535Z,81.78
2018-02-09T21:23:30.003Z,81.60
2018-02-09T21:25:57.495Z,81.86
2018-02-09T21:28:24.992Z,81.72
2018-02-09T21:30:52.475Z,81.79
2018-02-09T21:33:19.942Z,82.36
2018-02-09T21:35:47.433Z,82.27
2018-02-09T21:38:14.899Z,82.40
2018-02-09T21:40:42.387Z,82.62
2018-02-09T21:43:09.858Z,82.44
2018-02-09T21:45:37.377Z,82.12
2018-02-09T21:48:04.843Z,82.01
2018-02-09T21:50:32.325Z,82.00
2018-02-09T21:52:59.829Z,81.82
2018-02-09T21:55:27.319Z,81.96
2018-02-09T21:57:54.787Z,81.77
2018-02-09T22:00:22.271Z,81.72
2018-02-09T22:02:49.736Z,81.83
2018-02-09T22:05:17.263Z,82.15
2018-02-09T22:07:44.724Z,82.76
2018-02-09T22:10:12.211Z,82.55
2018-02-09T22:12:39.830Z,81.66
2018-02-09T22:15:07.311Z,81.34
2018-02-09T22:17:34.796Z,82.49
2018-02-09T22:20:02.270Z,82.96
2018-02-09T22:22:29.727Z,82.94
2018-02-09T22:24:57.218Z,82.84
2018-02-09T22:27:24.674Z,83.55
2018-02-09T22:29:52.154Z,83.29
2018-02-09T22:32:19.610Z,83.32
2018-02-09T22:34:47.092Z,83.15
2018-02-09T22:37:14.558Z,82.90
2018-02-09T22:39:42.067Z,82.76
2018-02-09T22:42:09.523Z,82.74
2018-02-09T22:44:36.983Z,82.45
2018-02-09T22:47:04.459Z,82.29
2018-02-09T22:49:31.914Z,82.26
2018-02-09T22:51:59.386Z,81.55
2018-02-09T22:54:26.863Z,82.23
2018-02-09T22:56:54.339Z,81.77
2018-02-09T22:59:21.790Z,81.11
2018-02-09T23:01:49.262Z,80.99
2018-02-09T23:04:16.727Z,81.05
2018-02-09T23:06:44.202Z,80.80
2018-02-09T23:09:11.658Z,79.48
2018-02-09T23:11:39.143Z,79.86
2018-02-09T23:14:06.599Z,80.34
2018-02-09T23:16:34.079Z,79.23
2018-02-09T23:19:01.551Z,79.25
2018-02-09T23:21:29.150Z,78.64
2018-02-09T23:23:56.612Z,78.90
2018-02-09T23:26:24.088Z,79.31
2018-02-09T23:28:51.659Z,79.38
2018-02-09T23:31:19.146Z,79.33
2018-02-09T23:33:46.599Z,78.71
2018-02-09T23:36:14.074Z,79.11
2018-02-09T23:38:41.538Z,80.17
2018-02-09T23:41:09.020Z,79.64
2018-02-09T23:43:36.492Z,79.06
2018-02-09T23:46:03.976Z,79.23
2018-02-09T23:48:31.435Z,78.71
2018-02-09T23:50:58.916Z,79.20
2018-02-09T23:53:26.378Z,79.00
2018-02-09T23:55:53.987Z,79.26
2018-02-09T23:58:21.542Z,78.52
